sensor_id;sensor_type;location;lat;lon;timestamp;pressure;altitude;pressure_sealevel;temperature;humidity
59154;BME280;44935;48.944;9.418;2023-11-19T00:01:20;98603.67;;;11.52;51.00
59154;BME280;44935;48.944;9.418;2023-11-19T00:03:47;98600.69;;;10.23;53.13
59154;BME280;44935;48.944;9.418;2023-11-19T00:06:14;98607.26;;;11.08;51.68
59154;BME280;44935;48.944;9.418;2023-11-19T00:08:41;98612.53;;;11.08;52.51
59154;BME280;44935;48.944;9.418;2023-11-19T00:11:08;98601.97;;;10.76;51.99
59154;BME280;44935;48.944;9.418;2023-11-19T00:13:34;98588.93;;;9.78;54.96
59154;BME280;44935;48.944;9.418;2023-11-19T00:16:01;98592.62;;;9.60;54.96
59154;BME280;44935;48.944;9.418;2023-11-19T00:18:28;98585.61;;;7.81;59.82
59154;BME280;44935;48.944;9.418;2023-11-19T00:20:55;98590.01;;;6.26;65.32
59154;BME280;44935;48.944;9.418;2023-11-19T00:23:22;98593.26;;;6.38;66.61
59154;BME280;44935;48.944;9.418;2023-11-19T00:25:49;98582.64;;;9.33;58.78
59154;BME280;44935;48.944;9.418;2023-11-19T00:28:16;98580.14;;;8.61;61.09
59154;BME280;44935;48.944;9.418;2023-11-19T00:30:43;98583.16;;;10.39;55.06
59154;BME280;44935;48.944;9.418;2023-11-19T00:33:09;98582.98;;;8.19;60.16
59154;BME280;44935;48.944;9.418;2023-11-19T00:35:36;98576.80;;;7.42;63.65
59154;BME280;44935;48.944;9.418;2023-11-19T00:38:03;98574.50;;;10.13;56.58
59154;BME280;44935;48.944;9.418;2023-11-19T00:40:30;98572.43;;;8.59;59.57
59154;BME280;44935;48.944;9.418;2023-11-19T00:42:57;98569.09;;;8.11;60.64
59154;BME280;44935;48.944;9.418;2023-11-19T00:45:24;98571.14;;;7.08;63.58
59154;BME280;44935;48.944;9.418;2023-11-19T00:47:51;98574.43;;;8.64;59.48
59154;BME280;44935;48.944;9.418;2023-11-19T00:50:18;98580.04;;;8.52;59.99
59154;BME280;44935;48.944;9.418;2023-11-19T00:52:45;98574.24;;;8.77;58.59
59154;BME280;44935;48.944;9.418;2023-11-19T00:55:12;98570.30;;;9.57;57.00
59154;BME280;44935;48.944;9.418;2023-11-19T00:57:39;98566.98;;;7.55;61.67
59154;BME280;44935;48.944;9.418;2023-11-19T01:00:07;98559.21;;;7.49;61.77
59154;BME280;44935;48.944;9.418;2023-11-19T01:02:35;98556.30;;;10.21;56.35
59154;BME280;44935;48.944;9.418;2023-11-19T01:05:02;98553.19;;;8.93;58.52
59154;BME280;44935;48.944;9.418;2023-11-19T01:07:28;98549.21;;;8.33;59.98
59154;BME280;44935;48.944;9.418;2023-11-19T01:09:55;98547.85;;;8.35;61.79
59154;BME280;44935;48.944;9.418;2023-11-19T01:12:22;98543.22;;;9.54;58.43
59154;BME280;44935;48.944;9.418;2023-11-19T01:14:49;98537.45;;;8.52;59.74
59154;BME280;44935;48.944;9.418;2023-11-19T01:17:16;98533.25;;;8.76;59.26
59154;BME280;44935;48.944;9.418;2023-11-19T01:19:43;98534.71;;;8.44;59.99
59154;BME280;44935;48.944;9.418;2023-11-19T01:22:10;98533.76;;;6.57;66.22
59154;BME280;44935;48.944;9.418;2023-11-19T01:24:36;98528.02;;;9.09;60.76
59154;BME280;44935;48.944;9.418;2023-11-19T01:27:04;98527.11;;;8.51;60.25
59154;BME280;44935;48.944;9.418;2023-11-19T01:29:31;98527.02;;;9.92;57.53
59154;BME280;44935;48.944;9.418;2023-11-19T01:31:58;98521.60;;;10.20;57.16
59154;BME280;44935;48.944;9.418;2023-11-19T01:34:25;98523.47;;;9.83;56.91
59154;BME280;44935;48.944;9.418;2023-11-19T01:36:52;98526.15;;;10.71;55.43
59154;BME280;44935;48.944;9.418;2023-11-19T01:39:18;98524.96;;;11.69;53.36
59154;BME280;44935;48.944;9.418;2023-11-19T01:41:45;98529.09;;;9.92;57.15
59154;BME280;44935;48.944;9.418;2023-11-19T01:44:12;98526.67;;;10.21;56.23
59154;BME280;44935;48.944;9.418;2023-11-19T01:46:41;98525.11;;;8.85;59.73
59154;BME280;44935;48.944;9.418;2023-11-19T01:49:09;98524.34;;;7.23;64.50
59154;BME280;44935;48.944;9.418;2023-11-19T01:51:36;98524.02;;;8.03;62.51
59154;BME280;44935;48.944;9.418;2023-11-19T01:54:05;98517.90;;;8.37;62.48
59154;BME280;44935;48.944;9.418;2023-11-19T01:56:33;98515.17;;;8.17;61.78
59154;BME280;44935;48.944;9.418;2023-11-19T01:59:00;98511.00;;;8.14;62.78
59154;BME280;44935;48.944;9.418;2023-11-19T02:01:29;98507.19;;;8.32;61.70
59154;BME280;44935;48.944;9.418;2023-11-19T02:03:57;98515.88;;;9.69;58.08
59154;BME280;44935;48.944;9.418;2023-11-19T02:06:24;98516.04;;;9.26;60.25
59154;BME280;44935;48.944;9.418;2023-11-19T02:08:52;98524.17;;;10.36;57.43
59154;BME280;44935;48.944;9.418;2023-11-19T02:11:19;98526.60;;;9.65;57.32
59154;BME280;44935;48.944;9.418;2023-11-19T02:13:46;98518.67;;;8.74;60.41
59154;BME280;44935;48.944;9.418;2023-11-19T02:16:13;98516.16;;;9.44;60.24
59154;BME280;44935;48.944;9.418;2023-11-19T02:18:40;98517.24;;;10.55;55.95
59154;BME280;44935;48.944;9.418;2023-11-19T02:21:06;98518.89;;;9.68;57.30
59154;BME280;44935;48.944;9.418;2023-11-19T02:23:34;98508.10;;;9.07;59.23
59154;BME280;44935;48.944;9.418;2023-11-19T02:26:07;98506.77;;;8.49;61.01
59154;BME280;44935;48.944;9.418;2023-11-19T02:28:36;98509.08;;;10.06;58.73
59154;BME280;44935;48.944;9.418;2023-11-19T02:31:03;98498.36;;;8.57;60.68
59154;BME280;44935;48.944;9.418;2023-11-19T02:33:31;98501.31;;;9.27;59.44
59154;BME280;44935;48.944;9.418;2023-11-19T02:35:57;98500.80;;;9.42;59.50
59154;BME280;44935;48.944;9.418;2023-11-19T02:38:24;98499.42;;;11.35;54.22
59154;BME280;44935;48.944;9.418;2023-11-19T02:40:52;98505.71;;;10.89;54.41
59154;BME280;44935;48.944;9.418;2023-11-19T02:43:19;98503.18;;;10.02;56.58
59154;BME280;44935;48.944;9.418;2023-11-19T02:45:46;98494.86;;;12.03;52.64
59154;BME280;44935;48.944;9.418;2023-11-19T02:48:13;98502.49;;;12.08;51.32
59154;BME280;44935;48.944;9.418;2023-11-19T02:50:39;98495.99;;;10.72;54.09
59154;BME280;44935;48.944;9.418;2023-11-19T02:53:06;98497.29;;;12.09;51.29
59154;BME280;44935;48.944;9.418;2023-11-19T02:55:33;98494.18;;;9.85;55.49
59154;BME280;44935;48.944;9.418;2023-11-19T02:58:00;98488.27;;;11.85;52.23
59154;BME280;44935;48.944;9.418;2023-11-19T03:00:27;98500.77;;;12.32;51.62
59154;BME280;44935;48.944;9.418;2023-11-19T03:02:54;98496.60;;;9.27;57.93
59154;BME280;44935;48.944;9.418;2023-11-19T03:05:21;98507.57;;;9.71;58.35
59154;BME280;44935;48.944;9.418;2023-11-19T03:07:47;98505.95;;;11.64;53.54
59154;BME280;44935;48.944;9.418;2023-11-19T03:10:14;98510.04;;;11.68;52.47
59154;BME280;44935;48.944;9.418;2023-11-19T03:12:42;98508.68;;;11.65;53.16
59154;BME280;44935;48.944;9.418;2023-11-19T03:15:09;98507.50;;;10.07;56.07
59154;BME280;44935;48.944;9.418;2023-11-19T03:17:38;98497.99;;;12.10;52.37
59154;BME280;44935;48.944;9.418;2023-11-19T03:20:07;98492.71;;;11.44;52.89
59154;BME280;44935;48.944;9.418;2023-11-19T03:22:35;98494.32;;;12.09;51.27
59154;BME280;44935;48.944;9.418;2023-11-19T03:25:04;98499.85;;;12.16;51.45
59154;BME280;44935;48.944;9.418;2023-11-19T03:27:31;98488.72;;;12.23;51.01
59154;BME280;44935;48.944;9.418;2023-11-19T03:29:58;98488.54;;;12.68;51.01
59154;BME280;44935;48.944;9.418;2023-11-19T03:32:25;98497.67;;;12.20;51.00
59154;BME280;44935;48.944;9.418;2023-11-19T03:34:52;98491.25;;;12.02;51.41
59154;BME280;44935;48.944;9.418;2023-11-19T03:37:18;98479.23;;;11.29;53.98
59154;BME280;44935;48.944;9.418;2023-11-19T03:39:45;98467.78;;;11.26;54.38
59154;BME280;44935;48.944;9.418;2023-11-19T03:42:12;98465.55;;;12.24;51.82
59154;BME280;44935;48.944;9.418;2023-11-19T03:44:39;98465.95;;;10.83;54.52
59154;BME280;44935;48.944;9.418;2023-11-19T03:47:06;98459.49;;;12.35;51.64
59154;BME280;44935;48.944;9.418;2023-11-19T03:49:33;98455.81;;;12.86;50.30
59154;BME280;44935;48.944;9.418;2023-11-19T03:52:00;98454.61;;;11.94;51.64
59154;BME280;44935;48.944;9.418;2023-11-19T03:54:26;98459.95;;;9.34;57.81
59154;BME280;44935;48.944;9.418;2023-11-19T03:56:53;98455.81;;;10.71;56.47
59154;BME280;44935;48.944;9.418;2023-11-19T03:59:20;98449.90;;;9.64;57.85
59154;BME280;44935;48.944;9.418;2023-11-19T04:01:47;98444.36;;;10.07;58.51
59154;BME280;44935;48.944;9.418;2023-11-19T04:04:14;98430.78;;;12.32;52.61
59154;BME280;44935;48.944;9.418;2023-11-19T04:06:41;98432.35;;;10.48;55.43
59154;BME280;44935;48.944;9.418;2023-11-19T04:09:08;98436.09;;;8.98;60.06
59154;BME280;44935;48.944;9.418;2023-11-19T04:11:36;98432.07;;;8.89;61.40
59154;BME280;44935;48.944;9.418;2023-11-19T04:14:03;98431.92;;;7.61;64.31
59154;BME280;44935;48.944;9.418;2023-11-19T04:16:30;98439.51;;;10.54;57.82
59154;BME280;44935;48.944;9.418;2023-11-19T04:18:57;98444.11;;;10.68;56.79
59154;BME280;44935;48.944;9.418;2023-11-19T04:21:24;98443.29;;;10.74;58.24
59154;BME280;44935;48.944;9.418;2023-11-19T04:23:50;98437.66;;;11.72;55.72
59154;BME280;44935;48.944;9.418;2023-11-19T04:26:17;98442.66;;;9.83;58.94
59154;BME280;44935;48.944;9.418;2023-11-19T04:28:44;98441.22;;;8.78;61.55
59154;BME280;44935;48.944;9.418;2023-11-19T04:31:11;98444.32;;;8.92;61.61
59154;BME280;44935;48.944;9.418;2023-11-19T04:33:38;98440.41;;;9.10;62.55
59154;BME280;44935;48.944;9.418;2023-11-19T04:36:06;98434.96;;;8.19;64.27
59154;BME280;44935;48.944;9.418;2023-11-19T04:38:32;98431.83;;;10.70;58.34
59154;BME280;44935;48.944;9.418;2023-11-19T04:40:59;98435.07;;;9.90;60.58
59154;BME280;44935;48.944;9.418;2023-11-19T04:43:26;98435.00;;;8.67;63.16
59154;BME280;44935;48.944;9.418;2023-11-19T04:45:53;98442.62;;;7.62;67.09
59154;BME280;44935;48.944;9.418;2023-11-19T04:48:20;98440.11;;;8.65;63.45
59154;BME280;44935;48.944;9.418;2023-11-19T04:50:47;98443.73;;;10.75;58.43
59154;BME280;44935;48.944;9.418;2023-11-19T04:53:13;98443.90;;;11.85;54.87
59154;BME280;44935;48.944;9.418;2023-11-19T04:55:40;98443.12;;;12.05;54.37
59154;BME280;44935;48.944;9.418;2023-11-19T04:58:07;98442.75;;;11.34;55.80
59154;BME280;44935;48.944;9.418;2023-11-19T05:00:34;98447.84;;;12.76;52.77
59154;BME280;44935;48.944;9.418;2023-11-19T05:03:01;98440.45;;;12.27;52.76
59154;BME280;44935;48.944;9.418;2023-11-19T05:05:28;98445.30;;;12.59;52.57
59154;BME280;44935;48.944;9.418;2023-11-19T05:07:55;98440.36;;;12.01;53.73
59154;BME280;44935;48.944;9.418;2023-11-19T05:10:21;98437.87;;;12.84;52.05
59154;BME280;44935;48.944;9.418;2023-11-19T05:12:48;98441.55;;;13.29;51.07
59154;BME280;44935;48.944;9.418;2023-11-19T05:15:15;98438.68;;;12.57;52.61
59154;BME280;44935;48.944;9.418;2023-11-19T05:17:42;98438.68;;;10.31;58.14
59154;BME280;44935;48.944;9.418;2023-11-19T05:20:09;98438.57;;;11.39;56.71
59154;BME280;44935;48.944;9.418;2023-11-19T05:22:37;98447.15;;;12.50;52.98
59154;BME280;44935;48.944;9.418;2023-11-19T05:25:05;98450.81;;;12.65;52.72
59154;BME280;44935;48.944;9.418;2023-11-19T05:27:32;98442.87;;;13.26;51.79
59154;BME280;44935;48.944;9.418;2023-11-19T05:29:59;98437.78;;;13.46;50.87
59154;BME280;44935;48.944;9.418;2023-11-19T05:32:26;98432.73;;;13.50;50.44
59154;BME280;44935;48.944;9.418;2023-11-19T05:34:53;98436.95;;;13.38;50.38
59154;BME280;44935;48.944;9.418;2023-11-19T05:37:20;98435.08;;;13.57;49.87
59154;BME280;44935;48.944;9.418;2023-11-19T05:39:47;98441.96;;;13.41;50.22
59154;BME280;44935;48.944;9.418;2023-11-19T05:42:14;98444.23;;;12.17;52.75
59154;BME280;44935;48.944;9.418;2023-11-19T05:44:41;98445.20;;;13.11;51.53
59154;BME280;44935;48.944;9.418;2023-11-19T05:47:09;98438.80;;;12.67;52.09
59154;BME280;44935;48.944;9.418;2023-11-19T05:49:35;98436.28;;;13.52;51.10
59154;BME280;44935;48.944;9.418;2023-11-19T05:52:02;98434.87;;;13.80;49.71
59154;BME280;44935;48.944;9.418;2023-11-19T05:54:30;98436.27;;;13.60;49.59
59154;BME280;44935;48.944;9.418;2023-11-19T05:56:57;98434.31;;;13.18;51.38
59154;BME280;44935;48.944;9.418;2023-11-19T05:59:24;98442.31;;;10.26;58.10
59154;BME280;44935;48.944;9.418;2023-11-19T06:01:50;98442.72;;;10.69;58.53
59154;BME280;44935;48.944;9.418;2023-11-19T06:04:17;98450.11;;;9.77;62.19
59154;BME280;44935;48.944;9.418;2023-11-19T06:06:45;98446.85;;;10.06;60.37
59154;BME280;44935;48.944;9.418;2023-11-19T06:09:12;98447.09;;;11.46;57.17
59154;BME280;44935;48.944;9.418;2023-11-19T06:11:39;98449.17;;;12.42;54.31
59154;BME280;44935;48.944;9.418;2023-11-19T06:14:06;98445.81;;;12.47;53.92
59154;BME280;44935;48.944;9.418;2023-11-19T06:16:33;98442.88;;;11.16;58.41
59154;BME280;44935;48.944;9.418;2023-11-19T06:19:00;98439.92;;;11.51;55.87
59154;BME280;44935;48.944;9.418;2023-11-19T06:21:27;98444.80;;;13.24;52.07
59154;BME280;44935;48.944;9.418;2023-11-19T06:23:54;98443.59;;;11.37;56.81
59154;BME280;44935;48.944;9.418;2023-11-19T06:26:21;98445.86;;;11.48;57.39
59154;BME280;44935;48.944;9.418;2023-11-19T06:28:48;98442.62;;;11.88;56.19
59154;BME280;44935;48.944;9.418;2023-11-19T06:31:14;98444.95;;;12.71;53.27
59154;BME280;44935;48.944;9.418;2023-11-19T06:33:41;98442.54;;;12.76;52.94
59154;BME280;44935;48.944;9.418;2023-11-19T06:36:09;98441.85;;;13.34;51.81
59154;BME280;44935;48.944;9.418;2023-11-19T06:38:43;98443.82;;;13.91;50.77
59154;BME280;44935;48.944;9.418;2023-11-19T06:41:10;98443.18;;;13.72;50.67
59154;BME280;44935;48.944;9.418;2023-11-19T06:43:37;98445.94;;;13.92;50.20
59154;BME280;44935;48.944;9.418;2023-11-19T06:46:05;98451.67;;;12.29;53.69
59154;BME280;44935;48.944;9.418;2023-11-19T06:48:32;98452.99;;;12.98;51.82
59154;BME280;44935;48.944;9.418;2023-11-19T06:50:59;98448.93;;;13.57;50.98
59154;BME280;44935;48.944;9.418;2023-11-19T06:53:26;98453.22;;;13.42;52.30
59154;BME280;44935;48.944;9.418;2023-11-19T06:55:53;98449.01;;;13.29;51.39
59154;BME280;44935;48.944;9.418;2023-11-19T06:58:20;98451.04;;;12.62;54.89
59154;BME280;44935;48.944;9.418;2023-11-19T07:00:47;98451.69;;;12.49;54.95
59154;BME280;44935;48.944;9.418;2023-11-19T07:03:14;98449.34;;;12.15;56.65
59154;BME280;44935;48.944;9.418;2023-11-19T07:05:40;98450.17;;;12.74;55.51
59154;BME280;44935;48.944;9.418;2023-11-19T07:08:07;98437.09;;;13.02;55.88
59154;BME280;44935;48.944;9.418;2023-11-19T07:10:34;98449.00;;;12.83;55.38
59154;BME280;44935;48.944;9.418;2023-11-19T07:13:01;98448.59;;;12.18;57.01
59154;BME280;44935;48.944;9.418;2023-11-19T07:15:28;98450.17;;;12.31;56.81
59154;BME280;44935;48.944;9.418;2023-11-19T07:17:55;98454.00;;;11.70;57.77
59154;BME280;44935;48.944;9.418;2023-11-19T07:20:21;98461.69;;;11.98;57.89
59154;BME280;44935;48.944;9.418;2023-11-19T07:22:48;98476.22;;;12.14;58.55
59154;BME280;44935;48.944;9.418;2023-11-19T07:25:15;98481.25;;;11.42;61.04
59154;BME280;44935;48.944;9.418;2023-11-19T07:27:42;98487.37;;;11.42;61.58
59154;BME280;44935;48.944;9.418;2023-11-19T07:30:09;98494.22;;;11.36;61.78
59154;BME280;44935;48.944;9.418;2023-11-19T07:32:37;98495.74;;;12.10;59.90
59154;BME280;44935;48.944;9.418;2023-11-19T07:35:04;98498.69;;;11.65;59.92
59154;BME280;44935;48.944;9.418;2023-11-19T07:37:31;98492.57;;;11.51;60.77
59154;BME280;44935;48.944;9.418;2023-11-19T07:39:58;98495.63;;;12.40;59.06
59154;BME280;44935;48.944;9.418;2023-11-19T07:42:25;98490.72;;;12.97;56.72
59154;BME280;44935;48.944;9.418;2023-11-19T07:44:52;98501.97;;;12.46;58.88
59154;BME280;44935;48.944;9.418;2023-11-19T07:47:19;98496.53;;;12.25;58.54
59154;BME280;44935;48.944;9.418;2023-11-19T07:49:45;98492.99;;;12.72;57.03
59154;BME280;44935;48.944;9.418;2023-11-19T07:52:12;98490.71;;;13.31;56.26
59154;BME280;44935;48.944;9.418;2023-11-19T07:54:39;98490.53;;;13.20;56.26
59154;BME280;44935;48.944;9.418;2023-11-19T07:57:06;98493.15;;;12.40;57.90
59154;BME280;44935;48.944;9.418;2023-11-19T07:59:33;98490.90;;;12.29;58.40
59154;BME280;44935;48.944;9.418;2023-11-19T08:02:00;98494.06;;;11.93;60.30
59154;BME280;44935;48.944;9.418;2023-11-19T08:04:26;98490.73;;;11.61;61.54
59154;BME280;44935;48.944;9.418;2023-11-19T08:06:53;98495.50;;;11.27;62.22
59154;BME280;44935;48.944;9.418;2023-11-19T08:09:20;98499.43;;;11.10;63.82
59154;BME280;44935;48.944;9.418;2023-11-19T08:11:47;98499.59;;;10.99;64.76
59154;BME280;44935;48.944;9.418;2023-11-19T08:14:14;98499.56;;;10.91;64.58
59154;BME280;44935;48.944;9.418;2023-11-19T08:16:41;98480.07;;;11.81;62.77
59154;BME280;44935;48.944;9.418;2023-11-19T08:19:08;98484.67;;;11.47;62.43
59154;BME280;44935;48.944;9.418;2023-11-19T08:21:34;98492.04;;;11.61;62.02
59154;BME280;44935;48.944;9.418;2023-11-19T08:24:01;98491.36;;;11.56;62.28
59154;BME280;44935;48.944;9.418;2023-11-19T08:26:28;98487.28;;;11.82;61.56
59154;BME280;44935;48.944;9.418;2023-11-19T08:28:55;98479.66;;;11.81;61.73
59154;BME280;44935;48.944;9.418;2023-11-19T08:31:22;98482.96;;;12.33;60.70
59154;BME280;44935;48.944;9.418;2023-11-19T08:33:49;98481.72;;;12.77;58.86
59154;BME280;44935;48.944;9.418;2023-11-19T08:36:16;98481.63;;;13.09;58.04
59154;BME280;44935;48.944;9.418;2023-11-19T08:38:43;98486.89;;;12.50;60.22
59154;BME280;44935;48.944;9.418;2023-11-19T08:41:10;98487.21;;;12.36;60.68
59154;BME280;44935;48.944;9.418;2023-11-19T08:43:37;98487.26;;;12.22;60.90
59154;BME280;44935;48.944;9.418;2023-11-19T08:46:09;98487.27;;;11.93;61.67
59154;BME280;44935;48.944;9.418;2023-11-19T08:48:36;98487.17;;;12.32;60.09
59154;BME280;44935;48.944;9.418;2023-11-19T08:51:03;98494.12;;;12.11;61.34
59154;BME280;44935;48.944;9.418;2023-11-19T08:53:30;98497.38;;;11.57;62.40
59154;BME280;44935;48.944;9.418;2023-11-19T08:55:57;98505.11;;;11.93;62.15
59154;BME280;44935;48.944;9.418;2023-11-19T08:58:24;98512.85;;;12.15;61.65
59154;BME280;44935;48.944;9.418;2023-11-19T09:00:51;98528.89;;;11.79;61.16
59154;BME280;44935;48.944;9.418;2023-11-19T09:03:18;98526.02;;;11.53;63.04
59154;BME280;44935;48.944;9.418;2023-11-19T09:05:45;98523.80;;;11.78;62.71
59154;BME280;44935;48.944;9.418;2023-11-19T09:08:11;98526.21;;;12.01;62.25
59154;BME280;44935;48.944;9.418;2023-11-19T09:10:38;98526.36;;;12.30;60.98
59154;BME280;44935;48.944;9.418;2023-11-19T09:13:05;98524.67;;;12.19;61.54
59154;BME280;44935;48.944;9.418;2023-11-19T09:15:32;98529.72;;;12.29;61.08
59154;BME280;44935;48.944;9.418;2023-11-19T09:17:59;98527.96;;;12.58;60.41
59154;BME280;44935;48.944;9.418;2023-11-19T09:20:26;98532.40;;;12.36;61.99
59154;BME280;44935;48.944;9.418;2023-11-19T09:22:53;98532.75;;;12.50;60.77
59154;BME280;44935;48.944;9.418;2023-11-19T09:25:20;98537.54;;;12.65;60.42
59154;BME280;44935;48.944;9.418;2023-11-19T09:27:46;98542.34;;;12.90;60.33
59154;BME280;44935;48.944;9.418;2023-11-19T09:30:13;98552.42;;;12.35;61.26
59154;BME280;44935;48.944;9.418;2023-11-19T09:32:41;98549.88;;;12.87;60.36
59154;BME280;44935;48.944;9.418;2023-11-19T09:35:08;98544.40;;;13.49;59.11
59154;BME280;44935;48.944;9.418;2023-11-19T09:37:35;98542.23;;;14.10;57.51
59154;BME280;44935;48.944;9.418;2023-11-19T09:40:03;98535.32;;;14.32;56.00
59154;BME280;44935;48.944;9.418;2023-11-19T09:42:31;98528.11;;;14.66;55.64
59154;BME280;44935;48.944;9.418;2023-11-19T09:45:13;98537.43;;;14.35;54.88
59154;BME280;44935;48.944;9.418;2023-11-19T09:47:43;98533.19;;;14.76;54.69
59154;BME280;44935;48.944;9.418;2023-11-19T09:50:15;98543.02;;;14.77;55.00
59154;BME280;44935;48.944;9.418;2023-11-19T09:52:43;98546.39;;;14.98;54.66
59154;BME280;44935;48.944;9.418;2023-11-19T09:55:10;98547.63;;;14.19;55.29
59154;BME280;44935;48.944;9.418;2023-11-19T09:57:38;98557.45;;;14.47;55.91
59154;BME280;44935;48.944;9.418;2023-11-19T10:00:07;98550.22;;;13.54;57.46
59154;BME280;44935;48.944;9.418;2023-11-19T10:02:34;98548.27;;;13.88;57.61
59154;BME280;44935;48.944;9.418;2023-11-19T10:05:05;98538.77;;;14.36;56.57
59154;BME280;44935;48.944;9.418;2023-11-19T10:07:33;98539.78;;;14.29;56.73
59154;BME280;44935;48.944;9.418;2023-11-19T10:10:01;98549.43;;;14.57;56.13
59154;BME280;44935;48.944;9.418;2023-11-19T10:12:29;98540.91;;;14.05;56.47
59154;BME280;44935;48.944;9.418;2023-11-19T10:14:57;98541.02;;;14.66;56.00
59154;BME280;44935;48.944;9.418;2023-11-19T10:17:27;98540.84;;;14.89;55.36
59154;BME280;44935;48.944;9.418;2023-11-19T10:19:54;98535.94;;;15.10;54.77
59154;BME280;44935;48.944;9.418;2023-11-19T10:22:22;98534.99;;;15.05;55.55
59154;BME280;44935;48.944;9.418;2023-11-19T10:24:50;98532.87;;;15.36;55.73
59154;BME280;44935;48.944;9.418;2023-11-19T10:27:16;98531.53;;;14.90;56.34
59154;BME280;44935;48.944;9.418;2023-11-19T10:29:45;98526.21;;;14.04;57.92
59154;BME280;44935;48.944;9.418;2023-11-19T10:32:12;98525.88;;;13.61;58.91
59154;BME280;44935;48.944;9.418;2023-11-19T10:34:40;98532.32;;;13.37;59.41
59154;BME280;44935;48.944;9.418;2023-11-19T10:37:07;98527.29;;;12.87;60.10
59154;BME280;44935;48.944;9.418;2023-11-19T10:39:51;98521.68;;;12.56;61.45
59154;BME280;44935;48.944;9.418;2023-11-19T10:42:18;98525.59;;;12.59;62.11
59154;BME280;44935;48.944;9.418;2023-11-19T10:44:45;98520.75;;;12.45;62.38
59154;BME280;44935;48.944;9.418;2023-11-19T10:47:13;98526.18;;;12.35;63.11
59154;BME280;44935;48.944;9.418;2023-11-19T10:49:40;98516.48;;;12.30;63.23
59154;BME280;44935;48.944;9.418;2023-11-19T10:52:09;98514.64;;;11.89;63.69
59154;BME280;44935;48.944;9.418;2023-11-19T10:54:37;98516.30;;;11.54;65.27
59154;BME280;44935;48.944;9.418;2023-11-19T10:57:09;98505.93;;;11.51;65.47
59154;BME280;44935;48.944;9.418;2023-11-19T10:59:39;98505.45;;;11.66;65.58
59154;BME280;44935;48.944;9.418;2023-11-19T11:02:09;98499.47;;;11.80;64.34
59154;BME280;44935;48.944;9.418;2023-11-19T11:04:40;98496.81;;;12.28;64.26
59154;BME280;44935;48.944;9.418;2023-11-19T11:07:07;98491.36;;;11.81;63.14
59154;BME280;44935;48.944;9.418;2023-11-19T11:09:35;98492.90;;;12.03;63.75
59154;BME280;44935;48.944;9.418;2023-11-19T11:12:04;98489.59;;;12.10;61.74
59154;BME280;44935;48.944;9.418;2023-11-19T11:14:32;98483.56;;;12.60;61.39
59154;BME280;44935;48.944;9.418;2023-11-19T11:17:02;98484.65;;;12.92;61.04
59154;BME280;44935;48.944;9.418;2023-11-19T11:19:29;98479.79;;;12.94;60.53
59154;BME280;44935;48.944;9.418;2023-11-19T11:21:57;98489.17;;;12.13;62.03
59154;BME280;44935;48.944;9.418;2023-11-19T11:24:39;98490.33;;;12.05;61.96
59154;BME280;44935;48.944;9.418;2023-11-19T11:27:38;98480.86;;;11.85;61.63
59154;BME280;44935;48.944;9.418;2023-11-19T11:30:20;98480.25;;;11.56;62.29
59154;BME280;44935;48.944;9.418;2023-11-19T11:32:59;98484.28;;;11.68;62.13
59154;BME280;44935;48.944;9.418;2023-11-19T11:35:39;98494.40;;;11.87;61.73
59154;BME280;44935;48.944;9.418;2023-11-19T11:38:14;98498.32;;;11.46;61.36
59154;BME280;44935;48.944;9.418;2023-11-19T11:40:41;98499.21;;;11.39;61.13
59154;BME280;44935;48.944;9.418;2023-11-19T11:43:43;98500.61;;;11.08;61.53
59154;BME280;44935;48.944;9.418;2023-11-19T11:46:53;98485.40;;;11.15;61.40
59154;BME280;44935;48.944;9.418;2023-11-19T11:49:25;98484.15;;;11.54;60.94
59154;BME280;44935;48.944;9.418;2023-11-19T11:52:09;98477.78;;;11.54;60.84
59154;BME280;44935;48.944;9.418;2023-11-19T11:54:36;98477.54;;;12.02;60.93
59154;BME280;44935;48.944;9.418;2023-11-19T11:57:07;98469.20;;;11.74;60.01
59154;BME280;44935;48.944;9.418;2023-11-19T11:59:51;98465.03;;;12.02;59.74
59154;BME280;44935;48.944;9.418;2023-11-19T12:02:19;98462.13;;;11.83;60.47
59154;BME280;44935;48.944;9.418;2023-11-19T12:04:47;98463.41;;;12.20;60.10
59154;BME280;44935;48.944;9.418;2023-11-19T12:07:17;98457.38;;;12.46;59.63
59154;BME280;44935;48.944;9.418;2023-11-19T12:09:48;98461.19;;;12.51;58.14
59154;BME280;44935;48.944;9.418;2023-11-19T12:12:21;98452.95;;;13.12;58.06
59154;BME280;44935;48.944;9.418;2023-11-19T12:15:06;98452.25;;;12.80;57.56
59154;BME280;44935;48.944;9.418;2023-11-19T12:17:40;98447.24;;;12.50;58.48
59154;BME280;44935;48.944;9.418;2023-11-19T12:20:08;98442.75;;;12.18;58.54
59154;BME280;44935;48.944;9.418;2023-11-19T12:22:37;98437.66;;;12.34;59.03
59154;BME280;44935;48.944;9.418;2023-11-19T12:25:05;98434.42;;;12.28;58.87
59154;BME280;44935;48.944;9.418;2023-11-19T12:27:33;98432.17;;;12.18;59.64
59154;BME280;44935;48.944;9.418;2023-11-19T12:30:01;98427.29;;;12.37;59.06
59154;BME280;44935;48.944;9.418;2023-11-19T12:32:37;98431.59;;;12.50;57.74
59154;BME280;44935;48.944;9.418;2023-11-19T12:35:05;98428.63;;;12.46;58.15
59154;BME280;44935;48.944;9.418;2023-11-19T12:37:32;98419.99;;;13.06;57.18
59154;BME280;44935;48.944;9.418;2023-11-19T12:39:59;98413.23;;;12.89;57.56
59154;BME280;44935;48.944;9.418;2023-11-19T12:42:35;98409.99;;;12.60;58.37
59154;BME280;44935;48.944;9.418;2023-11-19T12:45:03;98412.03;;;12.89;57.28
59154;BME280;44935;48.944;9.418;2023-11-19T12:47:30;98406.88;;;12.54;57.21
59154;BME280;44935;48.944;9.418;2023-11-19T12:49:57;98403.25;;;12.43;57.05
59154;BME280;44935;48.944;9.418;2023-11-19T12:52:24;98398.86;;;12.67;57.28
59154;BME280;44935;48.944;9.418;2023-11-19T12:54:50;98402.13;;;12.51;55.74
59154;BME280;44935;48.944;9.418;2023-11-19T12:57:17;98393.43;;;12.27;55.67
59154;BME280;44935;48.944;9.418;2023-11-19T12:59:54;98402.57;;;12.30;56.98
59154;BME280;44935;48.944;9.418;2023-11-19T13:02:21;98410.38;;;12.57;55.84
59154;BME280;44935;48.944;9.418;2023-11-19T13:04:48;98409.11;;;12.64;54.80
59154;BME280;44935;48.944;9.418;2023-11-19T13:07:20;98403.28;;;12.01;55.37